Lewistown, Missouri
Current Conditions -  °F | °C
As of 3:35 PM on Wednesday 26 Nov 2014 (Local Time) from KEOK Reporting Station
Haze Haze  
Wind Chill: 23°   Ceiling: 600
Heat Index: 32°   Visibility: 5mi
Dew Point: 30°   Wind: 12mph
Humidity: 93%   Direction: 80°E
Pressure: 30.01"   Gusts: NA
Location:  40.09°N, 91.81°W
Report Text: KEOK 262135Z AUTO 08010KT 5SM BR OVC006 00/M01 A3001 RMK AO2
Loading
Personal Weather Stations






























Interactive Weather Map New forecast layout! Learn more

10-Day Weather Forecast

Advertisements
Track Severe Weather on mobile